sensor_id;sensor_type;location;lat;lon;timestamp;P1;durP1;ratioP1;P2;durP2;ratioP2
14191;SDS011;7177;48.572;7.838;2022-07-17T00:01:19;3.93;;;3.20;;
14191;SDS011;7177;48.572;7.838;2022-07-17T00:03:44;6.80;;;2.70;;
14191;SDS011;7177;48.572;7.838;2022-07-17T00:06:10;3.87;;;2.70;;
14191;SDS011;7177;48.572;7.838;2022-07-17T00:08:35;8.00;;;2.70;;
14191;SDS011;7177;48.572;7.838;2022-07-17T00:11:01;4.90;;;2.50;;
14191;SDS011;7177;48.572;7.838;2022-07-17T00:13:27;3.30;;;2.57;;
14191;SDS011;7177;48.572;7.838;2022-07-17T00:15:53;4.93;;;2.80;;
14191;SDS011;7177;48.572;7.838;2022-07-17T00:18:19;3.33;;;2.27;;
14191;SDS011;7177;48.572;7.838;2022-07-17T00:20:44;3.07;;;2.60;;
14191;SDS011;7177;48.572;7.838;2022-07-17T00:23:10;4.43;;;2.50;;
14191;SDS011;7177;48.572;7.838;2022-07-17T00:25:35;3.57;;;2.63;;
14191;SDS011;7177;48.572;7.838;2022-07-17T00:28:02;5.63;;;2.80;;
14191;SDS011;7177;48.572;7.838;2022-07-17T00:30:28;6.90;;;2.63;;
14191;SDS011;7177;48.572;7.838;2022-07-17T00:32:54;5.70;;;2.60;;
14191;SDS011;7177;48.572;7.838;2022-07-17T00:35:19;4.07;;;3.00;;
14191;SDS011;7177;48.572;7.838;2022-07-17T00:37:46;3.00;;;2.60;;
14191;SDS011;7177;48.572;7.838;2022-07-17T00:40:14;3.67;;;2.43;;
14191;SDS011;7177;48.572;7.838;2022-07-17T00:42:43;2.73;;;2.37;;
14191;SDS011;7177;48.572;7.838;2022-07-17T00:45:09;3.37;;;2.50;;
14191;SDS011;7177;48.572;7.838;2022-07-17T00:47:46;3.93;;;2.53;;
14191;SDS011;7177;48.572;7.838;2022-07-17T00:50:24;6.33;;;2.70;;
14191;SDS011;7177;48.572;7.838;2022-07-17T00:52:52;3.37;;;2.50;;
14191;SDS011;7177;48.572;7.838;2022-07-17T00:55:18;3.60;;;2.70;;
14191;SDS011;7177;48.572;7.838;2022-07-17T00:57:45;3.30;;;2.63;;
14191;SDS011;7177;48.572;7.838;2022-07-17T01:00:12;4.50;;;2.87;;
14191;SDS011;7177;48.572;7.838;2022-07-17T01:02:39;5.40;;;2.60;;
14191;SDS011;7177;48.572;7.838;2022-07-17T01:05:05;3.23;;;2.60;;
14191;SDS011;7177;48.572;7.838;2022-07-17T01:07:32;3.90;;;2.40;;
14191;SDS011;7177;48.572;7.838;2022-07-17T01:09:58;5.50;;;2.30;;
14191;SDS011;7177;48.572;7.838;2022-07-17T01:12:23;4.83;;;2.67;;
14191;SDS011;7177;48.572;7.838;2022-07-17T01:14:50;4.97;;;2.40;;
14191;SDS011;7177;48.572;7.838;2022-07-17T01:17:17;5.03;;;2.60;;
14191;SDS011;7177;48.572;7.838;2022-07-17T01:19:42;4.07;;;2.40;;
14191;SDS011;7177;48.572;7.838;2022-07-17T01:22:08;6.43;;;2.67;;
14191;SDS011;7177;48.572;7.838;2022-07-17T01:24:33;3.43;;;2.47;;
14191;SDS011;7177;48.572;7.838;2022-07-17T01:26:59;6.23;;;2.60;;
14191;SDS011;7177;48.572;7.838;2022-07-17T01:29:24;2.77;;;2.33;;
14191;SDS011;7177;48.572;7.838;2022-07-17T01:31:50;3.30;;;2.80;;
14191;SDS011;7177;48.572;7.838;2022-07-17T01:34:15;4.27;;;2.77;;
14191;SDS011;7177;48.572;7.838;2022-07-17T01:36:41;5.07;;;2.53;;
14191;SDS011;7177;48.572;7.838;2022-07-17T01:39:07;6.60;;;2.77;;
14191;SDS011;7177;48.572;7.838;2022-07-17T01:41:33;3.47;;;2.47;;
14191;SDS011;7177;48.572;7.838;2022-07-17T01:43:58;4.33;;;2.90;;
14191;SDS011;7177;48.572;7.838;2022-07-17T01:46:24;5.87;;;2.63;;
14191;SDS011;7177;48.572;7.838;2022-07-17T01:48:50;4.23;;;2.30;;
14191;SDS011;7177;48.572;7.838;2022-07-17T01:51:16;3.63;;;2.60;;
14191;SDS011;7177;48.572;7.838;2022-07-17T01:53:41;4.97;;;2.70;;
14191;SDS011;7177;48.572;7.838;2022-07-17T01:56:07;5.30;;;2.50;;
14191;SDS011;7177;48.572;7.838;2022-07-17T01:58:33;4.60;;;2.43;;
14191;SDS011;7177;48.572;7.838;2022-07-17T02:00:59;2.63;;;2.40;;
14191;SDS011;7177;48.572;7.838;2022-07-17T02:03:24;4.73;;;2.83;;
14191;SDS011;7177;48.572;7.838;2022-07-17T02:05:50;6.43;;;3.03;;
14191;SDS011;7177;48.572;7.838;2022-07-17T02:08:16;3.43;;;3.00;;
14191;SDS011;7177;48.572;7.838;2022-07-17T02:10:41;2.97;;;2.67;;
14191;SDS011;7177;48.572;7.838;2022-07-17T02:13:07;5.90;;;2.70;;
14191;SDS011;7177;48.572;7.838;2022-07-17T02:15:33;4.50;;;2.47;;
14191;SDS011;7177;48.572;7.838;2022-07-17T02:17:58;3.17;;;2.60;;
14191;SDS011;7177;48.572;7.838;2022-07-17T02:20:24;3.47;;;2.90;;
14191;SDS011;7177;48.572;7.838;2022-07-17T02:22:49;6.00;;;2.93;;
14191;SDS011;7177;48.572;7.838;2022-07-17T02:25:15;5.40;;;2.60;;
14191;SDS011;7177;48.572;7.838;2022-07-17T02:27:41;6.07;;;2.60;;
14191;SDS011;7177;48.572;7.838;2022-07-17T02:30:09;9.67;;;2.80;;
14191;SDS011;7177;48.572;7.838;2022-07-17T02:32:37;5.10;;;2.93;;
14191;SDS011;7177;48.572;7.838;2022-07-17T02:35:03;3.93;;;2.60;;
14191;SDS011;7177;48.572;7.838;2022-07-17T02:37:29;8.67;;;3.03;;
14191;SDS011;7177;48.572;7.838;2022-07-17T02:39:55;3.20;;;2.80;;
14191;SDS011;7177;48.572;7.838;2022-07-17T02:42:21;3.30;;;2.53;;
14191;SDS011;7177;48.572;7.838;2022-07-17T02:44:48;4.67;;;3.00;;
14191;SDS011;7177;48.572;7.838;2022-07-17T02:47:20;4.77;;;2.87;;
14191;SDS011;7177;48.572;7.838;2022-07-17T02:49:50;6.40;;;2.77;;
14191;SDS011;7177;48.572;7.838;2022-07-17T02:52:17;3.23;;;2.60;;
14191;SDS011;7177;48.572;7.838;2022-07-17T02:54:43;5.23;;;3.13;;
14191;SDS011;7177;48.572;7.838;2022-07-17T02:57:09;3.90;;;2.80;;
14191;SDS011;7177;48.572;7.838;2022-07-17T02:59:35;4.30;;;2.87;;
14191;SDS011;7177;48.572;7.838;2022-07-17T03:02:01;4.97;;;3.03;;
14191;SDS011;7177;48.572;7.838;2022-07-17T03:04:26;2.97;;;2.60;;
14191;SDS011;7177;48.572;7.838;2022-07-17T03:06:52;2.83;;;2.40;;
14191;SDS011;7177;48.572;7.838;2022-07-17T03:09:17;3.13;;;2.77;;
14191;SDS011;7177;48.572;7.838;2022-07-17T03:11:43;6.27;;;3.00;;
14191;SDS011;7177;48.572;7.838;2022-07-17T03:14:09;4.47;;;2.70;;
14191;SDS011;7177;48.572;7.838;2022-07-17T03:16:34;3.80;;;2.60;;
14191;SDS011;7177;48.572;7.838;2022-07-17T03:19:00;4.13;;;2.97;;
14191;SDS011;7177;48.572;7.838;2022-07-17T03:21:25;4.07;;;3.00;;
14191;SDS011;7177;48.572;7.838;2022-07-17T03:23:51;6.63;;;3.27;;
14191;SDS011;7177;48.572;7.838;2022-07-17T03:26:16;6.50;;;2.83;;
14191;SDS011;7177;48.572;7.838;2022-07-17T03:28:42;4.93;;;3.13;;
14191;SDS011;7177;48.572;7.838;2022-07-17T03:31:07;5.33;;;3.10;;
14191;SDS011;7177;48.572;7.838;2022-07-17T03:33:33;4.53;;;2.90;;
14191;SDS011;7177;48.572;7.838;2022-07-17T03:35:58;8.37;;;2.80;;
14191;SDS011;7177;48.572;7.838;2022-07-17T03:38:24;7.53;;;3.17;;
14191;SDS011;7177;48.572;7.838;2022-07-17T03:40:50;3.53;;;2.70;;
14191;SDS011;7177;48.572;7.838;2022-07-17T03:43:15;3.60;;;2.87;;
14191;SDS011;7177;48.572;7.838;2022-07-17T03:45:41;3.83;;;2.67;;
14191;SDS011;7177;48.572;7.838;2022-07-17T03:48:06;3.17;;;2.87;;
14191;SDS011;7177;48.572;7.838;2022-07-17T03:50:32;3.10;;;2.47;;
14191;SDS011;7177;48.572;7.838;2022-07-17T03:52:58;4.13;;;2.80;;
14191;SDS011;7177;48.572;7.838;2022-07-17T03:55:23;4.00;;;2.93;;
14191;SDS011;7177;48.572;7.838;2022-07-17T03:57:49;5.97;;;3.03;;
14191;SDS011;7177;48.572;7.838;2022-07-17T04:00:14;7.00;;;3.83;;
14191;SDS011;7177;48.572;7.838;2022-07-17T04:02:40;4.33;;;2.80;;
14191;SDS011;7177;48.572;7.838;2022-07-17T04:05:06;8.63;;;3.17;;
14191;SDS011;7177;48.572;7.838;2022-07-17T04:07:36;3.20;;;2.90;;
14191;SDS011;7177;48.572;7.838;2022-07-17T04:10:06;7.67;;;2.90;;
14191;SDS011;7177;48.572;7.838;2022-07-17T04:12:33;5.50;;;3.03;;
14191;SDS011;7177;48.572;7.838;2022-07-17T04:14:58;3.57;;;2.60;;
14191;SDS011;7177;48.572;7.838;2022-07-17T04:17:24;4.73;;;2.67;;
14191;SDS011;7177;48.572;7.838;2022-07-17T04:19:51;2.90;;;2.60;;
14191;SDS011;7177;48.572;7.838;2022-07-17T04:22:17;4.23;;;2.77;;
14191;SDS011;7177;48.572;7.838;2022-07-17T04:24:43;4.70;;;2.50;;
14191;SDS011;7177;48.572;7.838;2022-07-17T04:27:09;4.10;;;2.53;;
14191;SDS011;7177;48.572;7.838;2022-07-17T04:29:34;5.23;;;2.97;;
14191;SDS011;7177;48.572;7.838;2022-07-17T04:32:00;4.33;;;2.90;;
14191;SDS011;7177;48.572;7.838;2022-07-17T04:34:26;4.17;;;2.80;;
14191;SDS011;7177;48.572;7.838;2022-07-17T04:36:51;3.87;;;2.80;;
14191;SDS011;7177;48.572;7.838;2022-07-17T04:39:17;4.13;;;2.77;;
14191;SDS011;7177;48.572;7.838;2022-07-17T04:41:43;3.53;;;2.50;;
14191;SDS011;7177;48.572;7.838;2022-07-17T04:44:09;3.93;;;2.90;;
14191;SDS011;7177;48.572;7.838;2022-07-17T04:46:34;4.57;;;2.80;;
14191;SDS011;7177;48.572;7.838;2022-07-17T04:49:00;3.73;;;2.50;;
14191;SDS011;7177;48.572;7.838;2022-07-17T04:51:26;7.33;;;2.50;;
14191;SDS011;7177;48.572;7.838;2022-07-17T04:53:51;3.50;;;2.60;;
14191;SDS011;7177;48.572;7.838;2022-07-17T04:56:17;5.87;;;3.03;;
14191;SDS011;7177;48.572;7.838;2022-07-17T04:58:42;5.33;;;2.80;;
14191;SDS011;7177;48.572;7.838;2022-07-17T05:01:08;4.37;;;2.80;;
14191;SDS011;7177;48.572;7.838;2022-07-17T05:03:33;7.03;;;2.37;;
14191;SDS011;7177;48.572;7.838;2022-07-17T05:05:59;5.13;;;2.60;;
14191;SDS011;7177;48.572;7.838;2022-07-17T05:08:24;6.87;;;2.83;;
14191;SDS011;7177;48.572;7.838;2022-07-17T05:10:50;7.87;;;3.00;;
14191;SDS011;7177;48.572;7.838;2022-07-17T05:13:15;3.60;;;2.40;;
14191;SDS011;7177;48.572;7.838;2022-07-17T05:15:41;3.20;;;2.20;;
14191;SDS011;7177;48.572;7.838;2022-07-17T05:18:07;3.13;;;2.53;;
14191;SDS011;7177;48.572;7.838;2022-07-17T05:20:32;6.20;;;2.73;;
14191;SDS011;7177;48.572;7.838;2022-07-17T05:22:58;5.20;;;2.87;;
14191;SDS011;7177;48.572;7.838;2022-07-17T05:25:23;5.33;;;2.60;;
14191;SDS011;7177;48.572;7.838;2022-07-17T05:27:50;3.47;;;2.67;;
14191;SDS011;7177;48.572;7.838;2022-07-17T05:30:16;3.73;;;2.63;;
14191;SDS011;7177;48.572;7.838;2022-07-17T05:32:41;3.93;;;2.70;;
14191;SDS011;7177;48.572;7.838;2022-07-17T05:35:07;3.57;;;2.47;;
14191;SDS011;7177;48.572;7.838;2022-07-17T05:37:33;3.77;;;2.60;;
14191;SDS011;7177;48.572;7.838;2022-07-17T05:39:58;3.73;;;2.30;;
14191;SDS011;7177;48.572;7.838;2022-07-17T05:42:24;5.93;;;2.60;;
14191;SDS011;7177;48.572;7.838;2022-07-17T05:44:49;3.27;;;2.30;;
14191;SDS011;7177;48.572;7.838;2022-07-17T05:47:15;4.40;;;2.20;;
14191;SDS011;7177;48.572;7.838;2022-07-17T05:49:40;8.17;;;2.70;;
14191;SDS011;7177;48.572;7.838;2022-07-17T05:52:06;5.13;;;2.83;;
14191;SDS011;7177;48.572;7.838;2022-07-17T05:54:31;4.57;;;2.67;;
14191;SDS011;7177;48.572;7.838;2022-07-17T05:56:58;3.50;;;2.23;;
14191;SDS011;7177;48.572;7.838;2022-07-17T05:59:24;3.13;;;2.20;;
14191;SDS011;7177;48.572;7.838;2022-07-17T06:01:50;4.20;;;2.53;;
14191;SDS011;7177;48.572;7.838;2022-07-17T06:04:15;2.90;;;2.47;;
14191;SDS011;7177;48.572;7.838;2022-07-17T06:06:41;4.90;;;2.20;;
14191;SDS011;7177;48.572;7.838;2022-07-17T06:09:06;5.37;;;2.63;;
14191;SDS011;7177;48.572;7.838;2022-07-17T06:11:32;4.57;;;2.47;;
14191;SDS011;7177;48.572;7.838;2022-07-17T06:13:57;7.33;;;2.73;;
14191;SDS011;7177;48.572;7.838;2022-07-17T06:16:23;3.57;;;2.30;;
14191;SDS011;7177;48.572;7.838;2022-07-17T06:18:48;4.43;;;2.60;;
14191;SDS011;7177;48.572;7.838;2022-07-17T06:21:14;4.50;;;2.90;;
14191;SDS011;7177;48.572;7.838;2022-07-17T06:23:39;2.90;;;2.33;;
14191;SDS011;7177;48.572;7.838;2022-07-17T06:26:05;5.60;;;2.70;;
14191;SDS011;7177;48.572;7.838;2022-07-17T06:28:30;4.90;;;2.70;;
14191;SDS011;7177;48.572;7.838;2022-07-17T06:30:56;3.67;;;2.77;;
14191;SDS011;7177;48.572;7.838;2022-07-17T06:33:22;7.97;;;2.77;;
14191;SDS011;7177;48.572;7.838;2022-07-17T06:35:47;4.50;;;2.20;;
14191;SDS011;7177;48.572;7.838;2022-07-17T06:38:13;5.87;;;2.70;;
14191;SDS011;7177;48.572;7.838;2022-07-17T06:40:38;5.80;;;2.43;;
14191;SDS011;7177;48.572;7.838;2022-07-17T06:43:05;3.60;;;2.33;;
14191;SDS011;7177;48.572;7.838;2022-07-17T06:45:31;5.53;;;3.30;;
14191;SDS011;7177;48.572;7.838;2022-07-17T06:47:57;3.57;;;2.70;;
14191;SDS011;7177;48.572;7.838;2022-07-17T06:50:22;3.67;;;2.70;;
14191;SDS011;7177;48.572;7.838;2022-07-17T06:52:48;5.37;;;2.43;;
14191;SDS011;7177;48.572;7.838;2022-07-17T06:55:13;2.97;;;2.27;;
14191;SDS011;7177;48.572;7.838;2022-07-17T06:57:39;3.97;;;2.60;;
14191;SDS011;7177;48.572;7.838;2022-07-17T07:00:05;4.33;;;2.50;;
14191;SDS011;7177;48.572;7.838;2022-07-17T07:02:31;2.70;;;2.00;;
14191;SDS011;7177;48.572;7.838;2022-07-17T07:04:57;4.60;;;2.20;;
14191;SDS011;7177;48.572;7.838;2022-07-17T07:07:23;7.03;;;2.67;;
14191;SDS011;7177;48.572;7.838;2022-07-17T07:09:48;5.37;;;2.70;;
14191;SDS011;7177;48.572;7.838;2022-07-17T07:12:14;3.60;;;2.10;;
14191;SDS011;7177;48.572;7.838;2022-07-17T07:14:39;3.27;;;2.30;;
14191;SDS011;7177;48.572;7.838;2022-07-17T07:17:05;3.23;;;2.23;;
14191;SDS011;7177;48.572;7.838;2022-07-17T07:19:30;4.00;;;2.47;;
14191;SDS011;7177;48.572;7.838;2022-07-17T07:21:56;6.37;;;2.83;;
14191;SDS011;7177;48.572;7.838;2022-07-17T07:24:22;3.23;;;2.40;;
14191;SDS011;7177;48.572;7.838;2022-07-17T07:26:47;3.27;;;2.20;;
14191;SDS011;7177;48.572;7.838;2022-07-17T07:29:13;2.97;;;2.17;;
14191;SDS011;7177;48.572;7.838;2022-07-17T07:31:38;3.43;;;2.40;;
14191;SDS011;7177;48.572;7.838;2022-07-17T07:34:04;3.00;;;2.37;;
14191;SDS011;7177;48.572;7.838;2022-07-17T07:36:30;4.40;;;1.90;;
14191;SDS011;7177;48.572;7.838;2022-07-17T07:38:55;3.97;;;2.20;;
14191;SDS011;7177;48.572;7.838;2022-07-17T07:41:21;4.83;;;2.33;;
14191;SDS011;7177;48.572;7.838;2022-07-17T07:43:46;4.60;;;2.20;;
14191;SDS011;7177;48.572;7.838;2022-07-17T07:46:12;7.47;;;2.30;;
14191;SDS011;7177;48.572;7.838;2022-07-17T07:48:38;5.03;;;2.23;;
14191;SDS011;7177;48.572;7.838;2022-07-17T07:51:03;4.17;;;2.90;;
14191;SDS011;7177;48.572;7.838;2022-07-17T07:53:29;9.07;;;2.80;;
14191;SDS011;7177;48.572;7.838;2022-07-17T07:55:54;4.30;;;2.60;;
14191;SDS011;7177;48.572;7.838;2022-07-17T07:58:20;10.43;;;3.77;;
14191;SDS011;7177;48.572;7.838;2022-07-17T08:00:45;6.63;;;3.00;;
14191;SDS011;7177;48.572;7.838;2022-07-17T08:03:12;10.67;;;3.57;;
14191;SDS011;7177;48.572;7.838;2022-07-17T08:05:37;8.40;;;2.57;;
14191;SDS011;7177;48.572;7.838;2022-07-17T08:08:03;4.50;;;2.10;;
14191;SDS011;7177;48.572;7.838;2022-07-17T08:10:29;4.60;;;2.40;;
14191;SDS011;7177;48.572;7.838;2022-07-17T08:12:55;3.80;;;2.20;;
14191;SDS011;7177;48.572;7.838;2022-07-17T08:15:20;6.97;;;2.10;;
14191;SDS011;7177;48.572;7.838;2022-07-17T08:17:47;4.43;;;2.30;;
14191;SDS011;7177;48.572;7.838;2022-07-17T08:20:15;4.40;;;2.47;;
14191;SDS011;7177;48.572;7.838;2022-07-17T08:22:41;3.53;;;2.30;;
14191;SDS011;7177;48.572;7.838;2022-07-17T08:25:08;4.07;;;2.07;;
14191;SDS011;7177;48.572;7.838;2022-07-17T08:27:35;4.33;;;2.20;;
14191;SDS011;7177;48.572;7.838;2022-07-17T08:30:02;6.80;;;2.43;;
14191;SDS011;7177;48.572;7.838;2022-07-17T08:32:32;4.43;;;2.47;;
14191;SDS011;7177;48.572;7.838;2022-07-17T08:34:58;3.13;;;2.13;;
14191;SDS011;7177;48.572;7.838;2022-07-17T08:37:24;3.37;;;2.53;;
14191;SDS011;7177;48.572;7.838;2022-07-17T08:39:51;4.10;;;2.30;;
14191;SDS011;7177;48.572;7.838;2022-07-17T08:42:17;2.27;;;1.90;;
14191;SDS011;7177;48.572;7.838;2022-07-17T08:44:43;6.13;;;2.60;;
14191;SDS011;7177;48.572;7.838;2022-07-17T08:47:10;2.70;;;1.73;;
14191;SDS011;7177;48.572;7.838;2022-07-17T08:49:36;3.93;;;2.30;;
14191;SDS011;7177;48.572;7.838;2022-07-17T08:52:08;2.90;;;2.03;;
14191;SDS011;7177;48.572;7.838;2022-07-17T08:54:34;4.50;;;2.07;;
14191;SDS011;7177;48.572;7.838;2022-07-17T08:57:01;5.93;;;2.50;;
14191;SDS011;7177;48.572;7.838;2022-07-17T08:59:27;3.33;;;2.03;;
14191;SDS011;7177;48.572;7.838;2022-07-17T09:01:53;7.57;;;2.03;;
14191;SDS011;7177;48.572;7.838;2022-07-17T09:04:18;4.17;;;2.10;;
14191;SDS011;7177;48.572;7.838;2022-07-17T09:06:44;2.20;;;2.00;;
14191;SDS011;7177;48.572;7.838;2022-07-17T09:09:10;3.93;;;2.17;;
14191;SDS011;7177;48.572;7.838;2022-07-17T09:11:57;4.50;;;2.00;;
14191;SDS011;7177;48.572;7.838;2022-07-17T09:14:37;2.77;;;1.90;;
14191;SDS011;7177;48.572;7.838;2022-07-17T09:17:05;2.93;;;1.93;;
14191;SDS011;7177;48.572;7.838;2022-07-17T09:19:33;4.23;;;1.80;;
14191;SDS011;7177;48.572;7.838;2022-07-17T09:30:09;3.30;;;1.83;;
14191;SDS011;7177;48.572;7.838;2022-07-17T09:32:37;3.33;;;1.80;;
14191;SDS011;7177;48.572;7.838;2022-07-17T09:35:05;4.70;;;1.80;;
14191;SDS011;7177;48.572;7.838;2022-07-17T09:37:33;2.77;;;2.10;;
14191;SDS011;7177;48.572;7.838;2022-07-17T09:40:00;5.60;;;2.00;;
14191;SDS011;7177;48.572;7.838;2022-07-17T09:42:30;4.37;;;1.90;;
14191;SDS011;7177;48.572;7.838;2022-07-17T09:47:26;2.57;;;1.90;;
14191;SDS011;7177;48.572;7.838;2022-07-17T09:49:53;6.13;;;2.37;;
14191;SDS011;7177;48.572;7.838;2022-07-17T09:52:25;5.20;;;1.80;;
14191;SDS011;7177;48.572;7.838;2022-07-17T09:54:52;3.60;;;1.70;;
14191;SDS011;7177;48.572;7.838;2022-07-17T09:57:19;2.67;;;1.67;;
14191;SDS011;7177;48.572;7.838;2022-07-17T09:59:48;2.23;;;1.93;;
14191;SDS011;7177;48.572;7.838;2022-07-17T10:02:14;6.10;;;2.07;;
14191;SDS011;7177;48.572;7.838;2022-07-17T10:04:40;5.63;;;2.10;;
14191;SDS011;7177;48.572;7.838;2022-07-17T10:07:06;3.27;;;2.63;;
14191;SDS011;7177;48.572;7.838;2022-07-17T10:09:33;6.63;;;2.67;;
14191;SDS011;7177;48.572;7.838;2022-07-17T10:11:59;3.97;;;1.93;;
14191;SDS011;7177;48.572;7.838;2022-07-17T10:14:26;2.33;;;1.90;;
14191;SDS011;7177;48.572;7.838;2022-07-17T10:16:52;2.73;;;2.07;;
14191;SDS011;7177;48.572;7.838;2022-07-17T10:19:18;2.30;;;2.07;;
14191;SDS011;7177;48.572;7.838;2022-07-17T10:21:52;3.83;;;2.50;;
14191;SDS011;7177;48.572;7.838;2022-07-17T10:24:22;3.37;;;1.97;;
14191;SDS011;7177;48.572;7.838;2022-07-17T10:26:47;3.20;;;2.10;;
14191;SDS011;7177;48.572;7.838;2022-07-17T10:31:55;2.23;;;1.90;;
14191;SDS011;7177;48.572;7.838;2022-07-17T10:34:37;3.17;;;2.00;;
14191;SDS011;7177;48.572;7.838;2022-07-17T10:37:16;2.20;;;2.00;;
14191;SDS011;7177;48.572;7.838;2022-07-17T10:42:39;2.43;;;1.77;;
14191;SDS011;7177;48.572;7.838;2022-07-17T10:45:17;6.27;;;2.10;;
14191;SDS011;7177;48.572;7.838;2022-07-17T10:50:46;2.73;;;1.97;;
14191;SDS011;7177;48.572;7.838;2022-07-17T10:56:05;4.97;;;2.00;;
14191;SDS011;7177;48.572;7.838;2022-07-17T10:58:32;4.57;;;2.17;;
14191;SDS011;7177;48.572;7.838;2022-07-17T11:01:03;4.33;;;3.73;;
14191;SDS011;7177;48.572;7.838;2022-07-17T11:03:29;4.07;;;2.70;;
14191;SDS011;7177;48.572;7.838;2022-07-17T11:06:05;3.87;;;2.07;;
14191;SDS011;7177;48.572;7.838;2022-07-17T11:08:45;2.70;;;2.17;;
14191;SDS011;7177;48.572;7.838;2022-07-17T11:11:14;3.80;;;1.97;;
14191;SDS011;7177;48.572;7.838;2022-07-17T11:13:41;5.03;;;1.57;;
14191;SDS011;7177;48.572;7.838;2022-07-17T11:16:07;2.13;;;1.80;;
14191;SDS011;7177;48.572;7.838;2022-07-17T11:18:32;3.53;;;2.00;;
14191;SDS011;7177;48.572;7.838;2022-07-17T11:21:00;3.67;;;1.90;;
14191;SDS011;7177;48.572;7.838;2022-07-17T11:23:29;2.00;;;1.80;;
14191;SDS011;7177;48.572;7.838;2022-07-17T11:25:58;7.17;;;2.00;;
14191;SDS011;7177;48.572;7.838;2022-07-17T11:28:32;2.03;;;1.70;;
14191;SDS011;7177;48.572;7.838;2022-07-17T11:31:04;6.53;;;1.90;;
14191;SDS011;7177;48.572;7.838;2022-07-17T11:33:45;5.93;;;2.00;;
14191;SDS011;7177;48.572;7.838;2022-07-17T11:36:12;3.57;;;2.70;;
14191;SDS011;7177;48.572;7.838;2022-07-17T11:38:40;4.60;;;2.00;;
14191;SDS011;7177;48.572;7.838;2022-07-17T11:41:06;2.63;;;1.77;;
14191;SDS011;7177;48.572;7.838;2022-07-17T11:43:41;2.57;;;1.90;;
14191;SDS011;7177;48.572;7.838;2022-07-17T11:46:07;3.70;;;1.80;;
14191;SDS011;7177;48.572;7.838;2022-07-17T11:48:33;1.93;;;1.70;;
14191;SDS011;7177;48.572;7.838;2022-07-17T11:50:59;2.37;;;1.80;;
14191;SDS011;7177;48.572;7.838;2022-07-17T11:53:31;1.53;;;1.43;;
14191;SDS011;7177;48.572;7.838;2022-07-17T11:55:58;3.10;;;1.80;;
14191;SDS011;7177;48.572;7.838;2022-07-17T11:58:24;1.77;;;1.67;;
14191;SDS011;7177;48.572;7.838;2022-07-17T12:01:03;4.57;;;1.90;;
14191;SDS011;7177;48.572;7.838;2022-07-17T12:03:29;7.03;;;1.70;;
14191;SDS011;7177;48.572;7.838;2022-07-17T12:05:55;5.67;;;1.80;;
14191;SDS011;7177;48.572;7.838;2022-07-17T12:08:21;2.30;;;1.80;;
14191;SDS011;7177;48.572;7.838;2022-07-17T12:10:46;2.37;;;1.70;;
14191;SDS011;7177;48.572;7.838;2022-07-17T12:13:12;4.33;;;1.93;;
14191;SDS011;7177;48.572;7.838;2022-07-17T12:15:46;5.77;;;1.80;;
14191;SDS011;7177;48.572;7.838;2022-07-17T12:18:34;2.57;;;1.90;;
14191;SDS011;7177;48.572;7.838;2022-07-17T12:21:03;3.07;;;2.07;;
14191;SDS011;7177;48.572;7.838;2022-07-17T12:23:31;2.70;;;1.50;;
14191;SDS011;7177;48.572;7.838;2022-07-17T12:26:09;2.23;;;1.87;;
14191;SDS011;7177;48.572;7.838;2022-07-17T12:28:40;2.00;;;1.63;;
14191;SDS011;7177;48.572;7.838;2022-07-17T12:31:10;4.23;;;1.93;;
14191;SDS011;7177;48.572;7.838;2022-07-17T12:33:37;2.47;;;1.40;;
14191;SDS011;7177;48.572;7.838;2022-07-17T12:36:02;2.20;;;1.70;;
14191;SDS011;7177;48.572;7.838;2022-07-17T12:38:28;4.47;;;1.60;;
14191;SDS011;7177;48.572;7.838;2022-07-17T12:40:54;2.43;;;1.50;;
14191;SDS011;7177;48.572;7.838;2022-07-17T12:43:20;2.37;;;1.60;;
14191;SDS011;7177;48.572;7.838;2022-07-17T12:45:46;3.00;;;2.00;;
14191;SDS011;7177;48.572;7.838;2022-07-17T12:48:12;1.93;;;1.63;;
14191;SDS011;7177;48.572;7.838;2022-07-17T12:50:37;3.23;;;2.60;;
14191;SDS011;7177;48.572;7.838;2022-07-17T12:53:03;2.30;;;2.10;;
14191;SDS011;7177;48.572;7.838;2022-07-17T12:55:30;2.03;;;1.50;;
14191;SDS011;7177;48.572;7.838;2022-07-17T12:57:55;2.20;;;1.70;;
14191;SDS011;7177;48.572;7.838;2022-07-17T13:00:21;3.33;;;1.60;;
14191;SDS011;7177;48.572;7.838;2022-07-17T13:02:46;2.43;;;1.83;;
14191;SDS011;7177;48.572;7.838;2022-07-17T13:05:13;5.67;;;2.00;;
14191;SDS011;7177;48.572;7.838;2022-07-17T13:07:38;2.63;;;1.70;;
14191;SDS011;7177;48.572;7.838;2022-07-17T13:10:04;2.57;;;1.70;;
14191;SDS011;7177;48.572;7.838;2022-07-17T13:12:30;1.70;;;1.60;;
14191;SDS011;7177;48.572;7.838;2022-07-17T13:14:56;1.70;;;1.40;;
14191;SDS011;7177;48.572;7.838;2022-07-17T13:17:21;2.23;;;1.90;;
14191;SDS011;7177;48.572;7.838;2022-07-17T13:19:47;1.87;;;1.70;;
14191;SDS011;7177;48.572;7.838;2022-07-17T13:22:13;5.27;;;1.40;;
14191;SDS011;7177;48.572;7.838;2022-07-17T13:24:39;2.87;;;1.57;;
14191;SDS011;7177;48.572;7.838;2022-07-17T13:27:04;5.53;;;1.60;;
14191;SDS011;7177;48.572;7.838;2022-07-17T13:29:30;3.03;;;1.80;;
14191;SDS011;7177;48.572;7.838;2022-07-17T13:31:56;1.87;;;1.77;;
14191;SDS011;7177;48.572;7.838;2022-07-17T13:34:21;2.77;;;1.57;;
14191;SDS011;7177;48.572;7.838;2022-07-17T13:36:48;3.73;;;1.70;;
14191;SDS011;7177;48.572;7.838;2022-07-17T13:39:14;1.73;;;1.43;;
14191;SDS011;7177;48.572;7.838;2022-07-17T13:41:39;1.70;;;1.40;;
14191;SDS011;7177;48.572;7.838;2022-07-17T13:44:06;3.10;;;1.60;;
14191;SDS011;7177;48.572;7.838;2022-07-17T13:46:31;1.60;;;1.47;;
14191;SDS011;7177;48.572;7.838;2022-07-17T13:48:57;3.90;;;1.50;;
14191;SDS011;7177;48.572;7.838;2022-07-17T13:51:23;1.80;;;1.57;;
14191;SDS011;7177;48.572;7.838;2022-07-17T13:53:50;1.93;;;1.60;;
14191;SDS011;7177;48.572;7.838;2022-07-17T13:56:16;3.13;;;1.43;;
14191;SDS011;7177;48.572;7.838;2022-07-17T13:58:42;2.23;;;1.50;;
14191;SDS011;7177;48.572;7.838;2022-07-17T14:01:07;3.07;;;1.53;;
14191;SDS011;7177;48.572;7.838;2022-07-17T14:03:33;2.53;;;2.13;;
14191;SDS011;7177;48.572;7.838;2022-07-17T14:05:58;1.97;;;1.53;;
14191;SDS011;7177;48.572;7.838;2022-07-17T14:08:24;3.33;;;1.70;;
14191;SDS011;7177;48.572;7.838;2022-07-17T14:10:50;2.03;;;1.50;;
14191;SDS011;7177;48.572;7.838;2022-07-17T14:13:15;3.97;;;1.57;;
14191;SDS011;7177;48.572;7.838;2022-07-17T14:15:41;2.97;;;1.37;;
14191;SDS011;7177;48.572;7.838;2022-07-17T14:18:07;2.20;;;1.50;;
14191;SDS011;7177;48.572;7.838;2022-07-17T14:20:32;2.93;;;1.40;;
14191;SDS011;7177;48.572;7.838;2022-07-17T14:22:58;2.27;;;1.50;;
14191;SDS011;7177;48.572;7.838;2022-07-17T14:25:23;5.60;;;1.43;;
14191;SDS011;7177;48.572;7.838;2022-07-17T14:27:49;1.60;;;1.50;;
14191;SDS011;7177;48.572;7.838;2022-07-17T14:30:14;1.77;;;1.33;;
14191;SDS011;7177;48.572;7.838;2022-07-17T14:32:40;1.93;;;1.40;;
14191;SDS011;7177;48.572;7.838;2022-07-17T14:35:06;4.37;;;1.50;;
14191;SDS011;7177;48.572;7.838;2022-07-17T14:37:32;3.30;;;1.30;;
14191;SDS011;7177;48.572;7.838;2022-07-17T14:39:58;5.20;;;1.60;;
14191;SDS011;7177;48.572;7.838;2022-07-17T14:42:23;1.50;;;1.40;;
14191;SDS011;7177;48.572;7.838;2022-07-17T14:44:49;2.50;;;1.40;;
14191;SDS011;7177;48.572;7.838;2022-07-17T14:47:14;1.70;;;1.47;;
14191;SDS011;7177;48.572;7.838;2022-07-17T14:49:41;3.37;;;1.40;;
14191;SDS011;7177;48.572;7.838;2022-07-17T14:52:07;2.60;;;1.47;;
14191;SDS011;7177;48.572;7.838;2022-07-17T14:54:33;1.40;;;1.30;;
14191;SDS011;7177;48.572;7.838;2022-07-17T14:56:59;4.07;;;1.43;;
14191;SDS011;7177;48.572;7.838;2022-07-17T14:59:25;5.00;;;1.43;;
14191;SDS011;7177;48.572;7.838;2022-07-17T15:01:51;1.70;;;1.40;;
14191;SDS011;7177;48.572;7.838;2022-07-17T15:04:16;3.63;;;1.37;;
14191;SDS011;7177;48.572;7.838;2022-07-17T15:06:42;4.03;;;1.77;;
14191;SDS011;7177;48.572;7.838;2022-07-17T15:09:08;6.43;;;4.00;;
14191;SDS011;7177;48.572;7.838;2022-07-17T15:11:35;3.87;;;1.80;;
14191;SDS011;7177;48.572;7.838;2022-07-17T15:14:00;2.30;;;1.50;;
14191;SDS011;7177;48.572;7.838;2022-07-17T15:16:26;4.00;;;1.50;;
14191;SDS011;7177;48.572;7.838;2022-07-17T15:18:51;1.70;;;1.60;;